Time;durP1;ratioP1;P1;durP2;ratioP2;P2;SDS_P1;SDS_P2;PMS_P1;PMS_P2;Temp;Humidity;BMP_temperature;BMP_pressure;BME280_temperature;BME280_humidity;BME280_pressure;Samples;Min_cycle;Max_cycle;Signal;HPM_P1;HPM_P2
2022/05/18 00:00:16;;;;;;;6.00;3.97;;;;;;;;;;5115207;28;20085;-49
2022/05/18 00:02:42;;;;;;;9.38;4.78;;;;;;;;;;5115088;28;20020;-50
2022/05/18 00:05:08;;;;;;;7.82;4.68;;;;;;;;;;5114837;28;20393;-49
2022/05/18 00:07:34;;;;;;;5.93;4.28;;;;;;;;;;5114817;28;20030;-49
2022/05/18 00:10:00;;;;;;;5.35;4.22;;;;;;;;;;5096462;28;20020;-50
2022/05/18 00:12:26;;;;;;;4.97;4.00;;;;;;;;;;5114982;28;20024;-50
2022/05/18 00:14:51;;;;;;;8.70;5.10;;;;;;;;;;5114932;28;20039;-52
2022/05/18 00:17:17;;;;;;;5.38;4.25;;;;;;;;;;5114484;28;20076;-50
2022/05/18 00:19:42;;;;;;;8.25;4.82;;;;;;;;;;5114864;28;20153;-49
2022/05/18 00:22:09;;;;;;;5.63;4.25;;;;;;;;;;5114571;28;20324;-50
2022/05/18 00:24:34;;;;;;;7.30;4.57;;;;;;;;;;5096624;28;20027;-50
2022/05/18 00:27:03;;;;;;;9.98;4.80;;;;;;;;;;5114767;28;20055;-49
2022/05/18 00:29:29;;;;;;;7.47;4.72;;;;;;;;;;5114328;28;20519;-53
2022/05/18 00:31:55;;;;;;;7.85;4.88;;;;;;;;;;5114558;28;20019;-50
2022/05/18 00:34:20;;;;;;;9.38;4.55;;;;;;;;;;5114550;28;20344;-50
2022/05/18 00:36:46;;;;;;;7.85;4.57;;;;;;;;;;5114451;28;20417;-50
2022/05/18 00:39:11;;;;;;;6.65;4.68;;;;;;;;;;5114457;28;20431;-51
2022/05/18 00:41:38;;;;;;;7.22;4.60;;;;;;;;;;5114457;28;20099;-49
2022/05/18 00:44:04;;;;;;;6.07;4.18;;;;;;;;;;5113977;28;20105;-48
2022/05/18 00:46:30;;;;;;;9.40;4.43;;;;;;;;;;5114313;28;20031;-50
2022/05/18 00:48:55;;;;;;;4.97;4.18;;;;;;;;;;5114233;28;20625;-52
2022/05/18 00:51:32;;;;;;;5.30;4.80;;;;;;;;;;5113938;28;20066;-50
2022/05/18 00:54:15;;;;;;;7.10;4.28;;;;;;;;;;5113906;28;20085;-51
2022/05/18 00:57:18;;;;;;;8.85;4.68;;;;;;;;;;5113776;28;20343;-52
2022/05/18 00:59:52;;;;;;;6.05;4.68;;;;;;;;;;5011083;28;20030;-52
2022/05/18 01:02:19;;;;;;;7.72;4.55;;;;;;;;;;5011314;28;20030;-50
2022/05/18 01:04:48;;;;;;;6.15;4.55;;;;;;;;;;5064819;28;20046;-49
2022/05/18 01:07:18;;;;;;;10.32;4.95;;;;;;;;;;5096102;28;20027;-52
2022/05/18 01:09:46;;;;;;;5.97;5.10;;;;;;;;;;5113880;28;20417;-48
2022/05/18 01:12:15;;;;;;;8.38;5.18;;;;;;;;;;5113549;28;20101;-49
2022/05/18 01:14:49;;;;;;;6.95;5.07;;;;;;;;;;5113509;28;20028;-50
2022/05/18 01:17:17;;;;;;;5.72;4.90;;;;;;;;;;5113657;28;20039;-50
2022/05/18 01:19:47;;;;;;;5.90;4.82;;;;;;;;;;5113740;28;20019;-49
2022/05/18 01:22:22;;;;;;;6.20;4.53;;;;;;;;;;5113375;28;20084;-49
2022/05/18 01:25:08;;;;;;;6.47;4.47;;;;;;;;;;5113371;28;20034;-51
2022/05/18 01:27:34;;;;;;;5.32;4.38;;;;;;;;;;5112917;28;20030;-51
2022/05/18 01:29:59;;;;;;;4.90;4.13;;;;;;;;;;5113835;28;20115;-51
2022/05/18 01:32:25;;;;;;;7.97;4.93;;;;;;;;;;5113269;28;20386;-52
2022/05/18 01:34:51;;;;;;;6.53;4.60;;;;;;;;;;5113572;28;20024;-53
2022/05/18 01:37:16;;;;;;;6.55;4.13;;;;;;;;;;5113278;28;20506;-50
2022/05/18 01:39:59;;;;;;;9.02;4.60;;;;;;;;;;5113161;28;20031;-48
2022/05/18 01:42:33;;;;;;;6.25;4.30;;;;;;;;;;5113142;28;20028;-47
2022/05/18 01:44:59;;;;;;;6.20;3.97;;;;;;;;;;5113015;28;20031;-47
2022/05/18 01:47:25;;;;;;;6.53;4.20;;;;;;;;;;5112986;28;20023;-47
2022/05/18 01:49:52;;;;;;;6.53;3.97;;;;;;;;;;5113255;28;20096;-47
2022/05/18 01:52:18;;;;;;;5.63;4.43;;;;;;;;;;5113246;28;20421;-47
2022/05/18 01:54:46;;;;;;;8.90;4.10;;;;;;;;;;5112994;28;20028;-48
2022/05/18 01:57:12;;;;;;;9.05;4.93;;;;;;;;;;5112753;28;20100;-47
2022/05/18 01:59:38;;;;;;;4.80;4.13;;;;;;;;;;5112868;28;20020;-47
2022/05/18 02:02:06;;;;;;;6.13;4.25;;;;;;;;;;5113092;28;20161;-47
2022/05/18 02:04:34;;;;;;;5.45;4.22;;;;;;;;;;5113114;28;20028;-47
2022/05/18 02:07:02;;;;;;;8.27;4.18;;;;;;;;;;5113104;28;20047;-48
2022/05/18 02:09:29;;;;;;;6.70;4.57;;;;;;;;;;5113000;28;20030;-47
2022/05/18 02:11:54;;;;;;;6.07;3.75;;;;;;;;;;5112779;28;20026;-48
2022/05/18 02:14:21;;;;;;;6.35;4.10;;;;;;;;;;5113049;28;20020;-46
2022/05/18 02:16:47;;;;;;;7.47;3.85;;;;;;;;;;5112610;28;20506;-49
2022/05/18 02:19:13;;;;;;;6.85;4.00;;;;;;;;;;5112989;28;20047;-47
2022/05/18 02:21:38;;;;;;;7.05;4.47;;;;;;;;;;5112618;28;20039;-46
2022/05/18 02:24:04;;;;;;;6.20;4.25;;;;;;;;;;5112711;28;20038;-51
2022/05/18 02:26:30;;;;;;;11.43;4.43;;;;;;;;;;5112617;28;20032;-46
2022/05/18 02:28:56;;;;;;;9.15;4.53;;;;;;;;;;5112870;28;20035;-47
2022/05/18 02:31:21;;;;;;;6.95;3.95;;;;;;;;;;5112638;28;20024;-49
2022/05/18 02:33:47;;;;;;;8.73;3.78;;;;;;;;;;5112875;28;20491;-48
2022/05/18 02:36:12;;;;;;;6.13;3.95;;;;;;;;;;5112758;28;20076;-48
2022/05/18 02:38:39;;;;;;;6.43;4.15;;;;;;;;;;5112421;28;20475;-48
2022/05/18 02:41:05;;;;;;;6.57;4.38;;;;;;;;;;5116644;28;20028;-47
2022/05/18 02:43:31;;;;;;;8.02;3.97;;;;;;;;;;5116529;28;20034;-48
2022/05/18 02:46:08;;;;;;;5.53;3.70;;;;;;;;;;5116760;28;20597;-49
2022/05/18 02:48:34;;;;;;;5.47;3.92;;;;;;;;;;5116726;28;20023;-49
2022/05/18 02:50:59;;;;;;;7.93;3.72;;;;;;;;;;5116303;28;20090;-49
2022/05/18 02:53:25;;;;;;;9.48;4.38;;;;;;;;;;5097932;28;20032;-48
2022/05/18 02:56:06;;;;;;;5.07;3.75;;;;;;;;;;5116378;28;20027;-50
2022/05/18 02:58:43;;;;;;;5.78;3.85;;;;;;;;;;5116412;28;20028;-51
2022/05/18 03:01:11;;;;;;;5.13;3.70;;;;;;;;;;5116457;28;20020;-47
2022/05/18 03:03:37;;;;;;;5.50;4.00;;;;;;;;;;5116034;28;20490;-51
2022/05/18 03:06:06;;;;;;;6.13;3.75;;;;;;;;;;5098039;28;20027;-49
2022/05/18 03:08:33;;;;;;;7.93;3.97;;;;;;;;;;5116268;28;20102;-49
2022/05/18 03:10:59;;;;;;;4.78;3.90;;;;;;;;;;5115844;28;20030;-51
2022/05/18 03:13:24;;;;;;;5.35;3.42;;;;;;;;;;5115902;28;20027;-47
2022/05/18 03:15:50;;;;;;;4.65;3.50;;;;;;;;;;5116166;28;20051;-48
2022/05/18 03:18:16;;;;;;;5.07;3.95;;;;;;;;;;5115690;28;20066;-47
2022/05/18 03:23:36;;;;;;;5.82;3.85;;;;;;;;;;5116020;28;20058;-49
2022/05/18 03:26:17;;;;;;;5.97;3.75;;;;;;;;;;5115712;28;20023;-51
2022/05/18 03:28:45;;;;;;;3.95;3.45;;;;;;;;;;5115636;28;20027;-49
2022/05/18 03:31:11;;;;;;;4.68;3.53;;;;;;;;;;5115824;28;20459;-49
2022/05/18 03:33:38;;;;;;;4.20;3.28;;;;;;;;;;5115762;28;20085;-50
2022/05/18 03:36:05;;;;;;;5.93;3.58;;;;;;;;;;5115751;28;20024;-48
2022/05/18 03:38:31;;;;;;;6.28;3.25;;;;;;;;;;5115704;28;20053;-47
2022/05/18 03:40:57;;;;;;;3.60;3.15;;;;;;;;;;5115625;28;20423;-48
2022/05/18 03:43:22;;;;;;;5.78;3.13;;;;;;;;;;5115654;28;20107;-48
2022/05/18 03:45:48;;;;;;;3.85;3.20;;;;;;;;;;5115196;28;20024;-51
2022/05/18 03:48:15;;;;;;;4.80;3.38;;;;;;;;;;5115247;28;20106;-51
2022/05/18 03:50:46;;;;;;;3.70;3.05;;;;;;;;;;5115114;28;20031;-49
2022/05/18 03:53:12;;;;;;;4.72;3.00;;;;;;;;;;5115400;28;20432;-48
2022/05/18 03:55:40;;;;;;;4.05;3.28;;;;;;;;;;5115145;28;20062;-49
2022/05/18 03:58:06;;;;;;;3.42;2.90;;;;;;;;;;5114762;28;20058;-50
2022/05/18 04:00:33;;;;;;;4.85;2.92;;;;;;;;;;5115256;28;20019;-48
2022/05/18 04:02:59;;;;;;;3.13;2.40;;;;;;;;;;5114911;28;20481;-47
2022/05/18 04:05:25;;;;;;;7.43;2.72;;;;;;;;;;5114792;28;20028;-48
2022/05/18 04:07:50;;;;;;;2.72;2.47;;;;;;;;;;5114828;28;20053;-47
2022/05/18 04:10:17;;;;;;;3.55;2.60;;;;;;;;;;5115090;28;20020;-48
2022/05/18 04:12:44;;;;;;;5.68;2.67;;;;;;;;;;5114711;28;20483;-47
2022/05/18 04:15:16;;;;;;;8.52;4.30;;;;;;;;;;5114974;28;20378;-47
2022/05/18 04:17:43;;;;;;;5.18;3.20;;;;;;;;;;5114794;28;20455;-48
2022/05/18 04:20:09;;;;;;;4.30;2.60;;;;;;;;;;5114869;28;20047;-48
2022/05/18 04:22:35;;;;;;;8.93;5.28;;;;;;;;;;5114816;28;20026;-50
2022/05/18 04:25:01;;;;;;;5.95;3.65;;;;;;;;;;5114733;28;20387;-48
2022/05/18 04:27:28;;;;;;;6.03;3.22;;;;;;;;;;5114490;28;20076;-50
2022/05/18 04:29:54;;;;;;;6.15;2.33;;;;;;;;;;5114654;28;20106;-51
2022/05/18 04:32:20;;;;;;;7.95;4.90;;;;;;;;;;5114605;28;20064;-48
2022/05/18 04:34:48;;;;;;;6.22;3.95;;;;;;;;;;5114580;28;20047;-51
2022/05/18 04:37:14;;;;;;;3.33;2.22;;;;;;;;;;5114181;28;20028;-49
2022/05/18 04:39:40;;;;;;;4.93;3.40;;;;;;;;;;5114150;28;20479;-47
2022/05/18 04:42:06;;;;;;;11.38;4.72;;;;;;;;;;5114473;28;20054;-48
2022/05/18 04:44:31;;;;;;;9.45;4.57;;;;;;;;;;5096313;28;20028;-50
2022/05/18 04:46:58;;;;;;;1.95;1.48;;;;;;;;;;5114053;28;20035;-48
2022/05/18 04:49:25;;;;;;;2.20;1.95;;;;;;;;;;5114281;28;20027;-47
2022/05/18 04:51:50;;;;;;;2.88;1.77;;;;;;;;;;5114222;28;20027;-47
2022/05/18 04:54:16;;;;;;;2.35;1.92;;;;;;;;;;5095785;28;20527;-47
2022/05/18 04:56:41;;;;;;;6.78;2.75;;;;;;;;;;5113717;28;20048;-49
2022/05/18 04:59:06;;;;;;;6.57;3.55;;;;;;;;;;5113848;28;20080;-52
2022/05/18 05:01:34;;;;;;;4.82;2.55;;;;;;;;;;5113236;28;20145;-52
2022/05/18 05:04:00;;;;;;;5.43;3.55;;;;;;;;;;5113442;28;20482;-49
2022/05/18 05:06:26;;;;;;;2.42;2.10;;;;;;;;;;5113976;28;20099;-50
2022/05/18 05:08:52;;;;;;;1.30;1.20;;;;;;;;;;5113932;28;20038;-50
2022/05/18 05:11:18;;;;;;;4.43;1.98;;;;;;;;;;5095747;28;20039;-50
2022/05/18 05:13:44;;;;;;;3.55;1.67;;;;;;;;;;5113878;28;20387;-50
2022/05/18 05:16:11;;;;;;;1.25;1.17;;;;;;;;;;5113743;28;20072;-49
2022/05/18 05:18:37;;;;;;;1.52;1.40;;;;;;;;;;5113429;28;20036;-50
2022/05/18 05:21:03;;;;;;;1.10;1.02;;;;;;;;;;5113396;28;20031;-47
2022/05/18 05:23:29;;;;;;;1.95;1.52;;;;;;;;;;5113430;28;20099;-49
2022/05/18 05:25:55;;;;;;;2.95;1.45;;;;;;;;;;5113402;28;20027;-49
2022/05/18 05:28:22;;;;;;;2.35;1.58;;;;;;;;;;5113320;28;20023;-47
2022/05/18 05:30:48;;;;;;;2.53;1.20;;;;;;;;;;5113297;28;20080;-49
2022/05/18 05:33:14;;;;;;;1.50;1.40;;;;;;;;;;5113177;28;20109;-47
2022/05/18 05:35:41;;;;;;;2.35;1.73;;;;;;;;;;5113417;28;20032;-46
2022/05/18 05:38:08;;;;;;;1.65;1.55;;;;;;;;;;5113080;28;20038;-48
2022/05/18 05:40:34;;;;;;;1.42;1.33;;;;;;;;;;5113251;28;20070;-49
2022/05/18 05:43:08;;;;;;;3.22;1.23;;;;;;;;;;5113007;28;20031;-51
2022/05/18 05:45:33;;;;;;;1.92;1.23;;;;;;;;;;5113557;28;20026;-50
2022/05/18 05:47:59;;;;;;;9.75;1.73;;;;;;;;;;5094996;28;20447;-53
2022/05/18 05:50:26;;;;;;;6.50;1.70;;;;;;;;;;5113187;28;20031;-51
2022/05/18 05:52:51;;;;;;;1.85;1.48;;;;;;;;;;5113210;28;20019;-49
2022/05/18 05:55:17;;;;;;;5.57;1.33;;;;;;;;;;5113184;28;20102;-48
2022/05/18 05:57:43;;;;;;;1.88;1.33;;;;;;;;;;5112694;28;20509;-50
2022/05/18 06:00:08;;;;;;;1.83;1.10;;;;;;;;;;5113211;28;20047;-47
2022/05/18 06:02:34;;;;;;;2.42;1.20;;;;;;;;;;5113096;28;20023;-49
2022/05/18 06:05:02;;;;;;;8.88;1.73;;;;;;;;;;5113158;28;20114;-51
2022/05/18 06:07:28;;;;;;;12.23;1.90;;;;;;;;;;5112746;28;20067;-50
2022/05/18 06:09:53;;;;;;;24.70;2.10;;;;;;;;;;5112647;28;20070;-49
2022/05/18 06:12:19;;;;;;;1.10;1.00;;;;;;;;;;5113075;28;20115;-50
2022/05/18 06:14:45;;;;;;;13.93;1.35;;;;;;;;;;5116597;28;20027;-50
2022/05/18 06:17:11;;;;;;;2.28;1.30;;;;;;;;;;5116841;28;20038;-49
2022/05/18 06:19:36;;;;;;;6.57;1.77;;;;;;;;;;5117279;28;20107;-50
2022/05/18 06:22:03;;;;;;;6.90;1.55;;;;;;;;;;5117187;28;20020;-49
2022/05/18 06:24:28;;;;;;;7.07;1.73;;;;;;;;;;5116757;28;20031;-49
2022/05/18 06:26:58;;;;;;;9.75;2.17;;;;;;;;;;5116660;28;20039;-50
2022/05/18 06:29:24;;;;;;;6.43;1.80;;;;;;;;;;5116935;28;20034;-52
2022/05/18 06:31:50;;;;;;;3.05;1.10;;;;;;;;;;5117034;28;20023;-51
2022/05/18 06:34:15;;;;;;;7.35;1.55;;;;;;;;;;5116894;28;20470;-52
2022/05/18 06:36:41;;;;;;;9.10;1.75;;;;;;;;;;5116760;28;20501;-49
2022/05/18 06:39:06;;;;;;;1.95;1.23;;;;;;;;;;5116550;28;20585;-51
2022/05/18 06:41:34;;;;;;;3.70;1.10;;;;;;;;;;5116815;28;20028;-50
2022/05/18 06:44:02;;;;;;;3.03;1.60;;;;;;;;;;5116391;28;20030;-48
2022/05/18 06:46:29;;;;;;;8.45;2.00;;;;;;;;;;5116381;28;20034;-49
2022/05/18 06:48:56;;;;;;;2.20;1.30;;;;;;;;;;5116611;28;20026;-49
2022/05/18 06:51:24;;;;;;;3.53;1.38;;;;;;;;;;5116662;28;20031;-50
2022/05/18 06:53:53;;;;;;;3.72;1.60;;;;;;;;;;5116283;28;20466;-48
2022/05/18 06:56:23;;;;;;;4.35;1.35;;;;;;;;;;5116075;28;20130;-49
2022/05/18 06:58:50;;;;;;;9.38;1.58;;;;;;;;;;5116321;28;20026;-50
2022/05/18 07:01:17;;;;;;;3.83;1.35;;;;;;;;;;5116224;28;20036;-50
2022/05/18 07:03:46;;;;;;;14.95;1.80;;;;;;;;;;5116366;28;20020;-52
2022/05/18 07:06:13;;;;;;;2.65;1.27;;;;;;;;;;5115992;28;20024;-49
2022/05/18 07:08:39;;;;;;;18.13;2.22;;;;;;;;;;5116023;28;20032;-49
2022/05/18 07:11:05;;;;;;;11.13;1.70;;;;;;;;;;5115936;28;20088;-47
2022/05/18 07:13:32;;;;;;;22.60;2.35;;;;;;;;;;5115818;28;20028;-49
2022/05/18 07:15:59;;;;;;;2.00;1.30;;;;;;;;;;5115819;28;20434;-49
2022/05/18 07:18:29;;;;;;;16.38;1.85;;;;;;;;;;5115933;28;20035;-51
2022/05/18 07:20:59;;;;;;;3.40;1.50;;;;;;;;;;5115985;28;20110;-53
2022/05/18 07:23:26;;;;;;;6.20;1.42;;;;;;;;;;5115651;28;20072;-50
2022/05/18 07:25:53;;;;;;;4.50;1.60;;;;;;;;;;5115527;28;20031;-49
2022/05/18 07:28:18;;;;;;;6.00;1.30;;;;;;;;;;5115912;28;20036;-48
2022/05/18 07:30:44;;;;;;;5.80;1.58;;;;;;;;;;5115500;28;20379;-51
2022/05/18 07:33:10;;;;;;;7.50;1.60;;;;;;;;;;5115552;28;20026;-48
2022/05/18 07:35:35;;;;;;;9.15;1.65;;;;;;;;;;5115425;28;20027;-51
2022/05/18 07:38:01;;;;;;;14.05;2.60;;;;;;;;;;5115221;28;20030;-50
2022/05/18 07:40:27;;;;;;;3.78;1.52;;;;;;;;;;5115321;28;20026;-52
2022/05/18 07:42:56;;;;;;;5.82;1.80;;;;;;;;;;5115233;28;20027;-51
2022/05/18 07:45:23;;;;;;;9.05;1.45;;;;;;;;;;5115131;28;20046;-49
2022/05/18 07:47:49;;;;;;;6.20;1.60;;;;;;;;;;5114574;28;20474;-52
2022/05/18 07:50:16;;;;;;;9.13;1.20;;;;;;;;;;5114554;28;20028;-51
2022/05/18 07:52:42;;;;;;;3.45;1.42;;;;;;;;;;5112120;28;20276;-50
2022/05/18 07:55:08;;;;;;;6.75;1.40;;;;;;;;;;5114828;28;20023;-49
2022/05/18 07:57:33;;;;;;;7.28;1.75;;;;;;;;;;5114030;28;20040;-52
2022/05/18 07:59:59;;;;;;;2.08;1.20;;;;;;;;;;5096169;28;20115;-50
2022/05/18 08:02:27;;;;;;;10.13;1.90;;;;;;;;;;5114302;28;20027;-52
2022/05/18 08:04:52;;;;;;;7.93;1.70;;;;;;;;;;5114861;28;20050;-50
2022/05/18 08:07:18;;;;;;;1.85;1.60;;;;;;;;;;5114737;28;20467;-54
2022/05/18 08:15:12;;;;;;;2.28;1.20;;;;;;;;;;5112576;28;20390;-52
2022/05/18 08:17:42;;;;;;;9.75;1.40;;;;;;;;;;5114326;28;20035;-49
2022/05/18 08:20:08;;;;;;;;;;;;;;;;;;5114920;28;20068;-49
2022/05/18 08:22:34;;;;;;;2.88;1.52;;;;;;;;;;5114352;28;19911;-49
2022/05/18 08:24:59;;;;;;;7.18;1.67;;;;;;;;;;5114638;28;20031;-50
2022/05/18 08:27:25;;;;;;;15.07;1.73;;;;;;;;;;5114440;28;20472;-53
2022/05/18 08:29:51;;;;;;;10.70;1.70;;;;;;;;;;5114701;28;20463;-48
2022/05/18 08:32:16;;;;;;;1.80;0.93;;;;;;;;;;5114648;28;20031;-50
2022/05/18 08:34:42;;;;;;;4.65;1.58;;;;;;;;;;5114386;28;20379;-54
2022/05/18 08:37:07;;;;;;;21.85;8.10;;;;;;;;;;5112753;28;20042;-51
2022/05/18 08:39:32;;;;;;;2.60;1.10;;;;;;;;;;5113029;28;20117;-52
2022/05/18 08:42:00;;;;;;;3.83;0.80;;;;;;;;;;5112856;28;20324;-51
2022/05/18 08:44:32;;;;;;;2.42;1.38;;;;;;;;;;5112472;28;20019;-52
2022/05/18 08:47:40;;;;;;;5.95;1.42;;;;;;;;;;5112521;28;20436;-54
2022/05/18 08:50:12;;;;;;;4.43;1.17;;;;;;;;;;5063421;28;20042;-53
2022/05/18 08:52:57;;;;;;;6.25;1.70;;;;;;;;;;5114220;28;20020;-50
2022/05/18 08:55:48;;;;;;;6.55;1.13;;;;;;;;;;5113641;28;20102;-50
2022/05/18 08:58:26;;;;;;;6.68;1.45;;;;;;;;;;5113464;28;20085;-50
2022/05/18 09:00:58;;;;;;;4.70;1.35;;;;;;;;;;5113709;28;20110;-50
2022/05/18 09:03:32;;;;;;;2.85;1.33;;;;;;;;;;5113601;28;20019;-53
2022/05/18 09:06:18;;;;;;;4.30;1.50;;;;;;;;;;5113780;28;20023;-49
2022/05/18 09:10:12;;;;;;;7.22;1.60;;;;;;;;;;5113708;28;20023;-53
2022/05/18 09:11:36;;;;;;;6.88;1.50;;;;;;;;;;5113543;28;20522;-50
2022/05/18 09:14:01;;;;;;;12.57;1.17;;;;;;;;;;5095267;28;20054;-53
2022/05/18 09:16:40;;;;;;;4.00;1.63;;;;;;;;;;5113617;28;20020;-52
2022/05/18 09:19:31;;;;;;;7.28;1.42;;;;;;;;;;5113751;28;20034;-49
2022/05/18 09:22:14;;;;;;;3.28;0.88;;;;;;;;;;5112952;28;20040;-49
2022/05/18 09:25:33;;;;;;;0.82;0.73;;;;;;;;;;5112834;28;20024;-48
2022/05/18 09:28:20;;;;;;;12.13;2.00;;;;;;;;;;5010670;28;20072;-47
2022/05/18 09:31:04;;;;;;;7.10;1.40;;;;;;;;;;5010696;28;20474;-47
2022/05/18 09:33:55;;;;;;;3.63;1.23;;;;;;;;;;5096442;28;20395;-49
2022/05/18 09:36:30;;;;;;;13.13;1.63;;;;;;;;;;5113549;28;20106;-48
2022/05/18 09:39:09;;;;;;;1.65;1.13;;;;;;;;;;5113155;28;20036;-50
2022/05/18 09:41:39;;;;;;;2.80;1.10;;;;;;;;;;5113205;28;20498;-48
2022/05/18 09:44:32;;;;;;;1.25;1.08;;;;;;;;;;5113110;28;20486;-51
2022/05/18 09:47:00;;;;;;;1.98;1.00;;;;;;;;;;5113458;28;20489;-48
2022/05/18 09:49:35;;;;;;;23.23;1.95;;;;;;;;;;5112485;28;20348;-49
2022/05/18 09:52:04;;;;;;;5.88;1.17;;;;;;;;;;5112626;28;20487;-49
2022/05/18 09:54:31;;;;;;;5.43;1.40;;;;;;;;;;5112660;28;20023;-48
2022/05/18 09:57:23;;;;;;;1.42;0.98;;;;;;;;;;5112581;28;20502;-49
2022/05/18 09:59:59;;;;;;;8.70;0.98;;;;;;;;;;5101495;28;20046;-48
2022/05/18 10:07:59;;;;;;;3.20;1.67;;;;;;;;;;5113142;28;20056;-47
2022/05/18 10:10:32;;;;;;;5.88;1.40;;;;;;;;;;5112981;28;20020;-47
2022/05/18 10:13:10;;;;;;;1.95;0.90;;;;;;;;;;5112957;28;20102;-48
2022/05/18 10:15:58;;;;;;;10.45;1.58;;;;;;;;;;5112939;28;20023;-47
2022/05/18 10:18:23;;;;;;;1.92;1.00;;;;;;;;;;5112901;28;20031;-48
2022/05/18 10:21:05;;;;;;;2.05;0.90;;;;;;;;;;5111331;28;20024;-48
2022/05/18 10:23:41;;;;;;;5.68;1.25;;;;;;;;;;5112707;28;20027;-48
2022/05/18 10:26:19;;;;;;;4.53;0.90;;;;;;;;;;5112486;28;20080;-48
2022/05/18 10:28:55;;;;;;;5.20;1.10;;;;;;;;;;5112437;28;20384;-50
2022/05/18 10:31:46;;;;;;;1.60;0.90;;;;;;;;;;5112821;28;20065;-48
2022/05/18 10:34:30;;;;;;;3.10;1.27;;;;;;;;;;5112535;28;20031;-48
2022/05/18 10:36:59;;;;;;;1.23;1.00;;;;;;;;;;5112636;28;20387;-50
2022/05/18 10:39:30;;;;;;;1.23;0.90;;;;;;;;;;5112809;28;20076;-50
2022/05/18 10:41:55;;;;;;;;;;;;;;;;;;5112919;28;20027;-49
2022/05/18 10:44:22;;;;;;;1.00;0.90;;;;;;;;;;5108925;28;19916;-51
2022/05/18 10:46:50;;;;;;;9.00;0.82;;;;;;;;;;5109968;28;20216;-52
2022/05/18 10:49:45;;;;;;;6.10;1.20;;;;;;;;;;5112573;28;20468;-51
2022/05/18 10:52:16;;;;;;;0.65;0.65;;;;;;;;;;5090303;28;20028;-49
2022/05/18 10:55:16;;;;;;;0.60;0.60;;;;;;;;;;5111175;28;20027;-52
2022/05/18 10:57:54;;;;;;;0.63;0.63;;;;;;;;;;5110743;28;20048;-47
2022/05/18 11:00:20;;;;;;;1.00;0.65;;;;;;;;;;5111891;28;20607;-47
2022/05/18 11:03:17;;;;;;;2.85;1.27;;;;;;;;;;5114898;28;20428;-46
2022/05/18 11:05:53;;;;;;;1.23;0.88;;;;;;;;;;5114552;28;20394;-46
2022/05/18 11:08:22;;;;;;;0.85;0.60;;;;;;;;;;5114184;28;20470;-48
2022/05/18 11:11:02;;;;;;;6.60;2.53;;;;;;;;;;5114739;28;20422;-49
2022/05/18 11:13:40;;;;;;;1.45;0.93;;;;;;;;;;5114593;28;20157;-47
2022/05/18 11:16:19;;;;;;;1.00;0.93;;;;;;;;;;5113662;28;20038;-48
2022/05/18 11:18:59;;;;;;;0.60;0.60;;;;;;;;;;5113751;28;20435;-48
2022/05/18 11:21:38;;;;;;;1.20;0.90;;;;;;;;;;5114086;28;20080;-57
2022/05/18 11:24:23;;;;;;;1.73;0.88;;;;;;;;;;5113834;28;20028;-54
2022/05/18 11:27:25;;;;;;;2.78;0.90;;;;;;;;;;5113959;28;20431;-55
2022/05/18 11:29:59;;;;;;;4.53;1.70;;;;;;;;;;5075783;28;20035;-57
2022/05/18 11:33:02;;;;;;;4.40;0.52;;;;;;;;;;5114223;28;20063;-55
2022/05/18 11:35:40;;;;;;;3.20;0.90;;;;;;;;;;5113951;28;20433;-52
2022/05/18 11:38:45;;;;;;;6.90;1.27;;;;;;;;;;5113786;28;20031;-57
2022/05/18 11:41:36;;;;;;;0.60;0.60;;;;;;;;;;5113684;28;20028;-56
2022/05/18 11:44:07;;;;;;;5.18;0.50;;;;;;;;;;5113353;28;20031;-51
2022/05/18 11:46:39;;;;;;;5.60;1.05;;;;;;;;;;5113537;28;20421;-57
2022/05/18 11:49:33;;;;;;;2.47;0.90;;;;;;;;;;5113140;28;20036;-55
2022/05/18 11:52:15;;;;;;;1.83;1.00;;;;;;;;;;5113102;28;20532;-55
2022/05/18 11:54:50;;;;;;;3.50;0.88;;;;;;;;;;5112271;28;20051;-55
2022/05/18 11:57:38;;;;;;;4.03;1.00;;;;;;;;;;5111763;28;20047;-50
2022/05/18 12:00:17;;;;;;;3.38;0.85;;;;;;;;;;5111735;28;20494;-53
2022/05/18 12:03:01;;;;;;;2.67;1.02;;;;;;;;;;5112035;28;20063;-57
2022/05/18 12:05:27;;;;;;;2.30;0.60;;;;;;;;;;5112153;28;20019;-53
2022/05/18 12:08:29;;;;;;;2.97;1.17;;;;;;;;;;5112115;28;20593;-56
2022/05/18 12:11:03;;;;;;;3.38;1.02;;;;;;;;;;5112806;28;20096;-51
2022/05/18 12:13:57;;;;;;;2.75;0.80;;;;;;;;;;5113201;28;20031;-54
2022/05/18 12:16:44;;;;;;;0.70;0.60;;;;;;;;;;5112820;28;20035;-55
2022/05/18 12:19:14;;;;;;;0.75;0.50;;;;;;;;;;5112702;28;20482;-57
2022/05/18 12:21:50;;;;;;;0.57;0.57;;;;;;;;;;5113002;28;20034;-55
2022/05/18 12:24:17;;;;;;;1.10;0.65;;;;;;;;;;5113116;28;20051;-56
2022/05/18 12:26:45;;;;;;;1.65;0.60;;;;;;;;;;5112060;28;20501;-52
2022/05/18 12:29:14;;;;;;;0.40;0.40;;;;;;;;;;5112558;28;20035;-53
2022/05/18 12:31:42;;;;;;;1.23;0.90;;;;;;;;;;5113100;28;20031;-49
2022/05/18 12:34:13;;;;;;;3.35;0.85;;;;;;;;;;5113030;28;20032;-51
2022/05/18 12:36:56;;;;;;;7.85;1.25;;;;;;;;;;5112666;28;20504;-51
2022/05/18 12:39:44;;;;;;;4.50;1.90;;;;;;;;;;5112319;28;20035;-53
2022/05/18 12:42:15;;;;;;;13.73;5.18;;;;;;;;;;5112451;28;20477;-55
2022/05/18 12:44:53;;;;;;;1.10;0.57;;;;;;;;;;5112824;28;20034;-53
2022/05/18 12:47:26;;;;;;;1.55;0.52;;;;;;;;;;5112447;28;20462;-55
2022/05/18 12:50:01;;;;;;;0.65;0.65;;;;;;;;;;5112380;28;20027;-52
2022/05/18 12:52:30;;;;;;;9.52;0.60;;;;;;;;;;5112284;28;20049;-57
2022/05/18 12:55:01;;;;;;;1.92;0.85;;;;;;;;;;5112363;28;20364;-56
2022/05/18 12:57:42;;;;;;;1.02;0.65;;;;;;;;;;5112146;28;20043;-56
2022/05/18 13:00:13;;;;;;;1.30;0.60;;;;;;;;;;5112286;28;20047;-57
2022/05/18 13:02:57;;;;;;;0.98;0.60;;;;;;;;;;5112171;28;20024;-52
2022/05/18 13:05:25;;;;;;;1.90;0.50;;;;;;;;;;5112404;28;20020;-55
2022/05/18 13:07:53;;;;;;;1.33;0.80;;;;;;;;;;5112076;28;20467;-56
2022/05/18 13:10:23;;;;;;;1.08;0.60;;;;;;;;;;5111915;28;20036;-56
2022/05/18 13:12:55;;;;;;;;;;;;;;;;;;5112720;28;20027;-55
2022/05/18 13:15:38;;;;;;;1.83;0.63;;;;;;;;;;5111920;28;19911;-57
2022/05/18 13:18:13;;;;;;;9.65;1.55;;;;;;;;;;5112145;28;20439;-58
2022/05/18 13:20:51;;;;;;;0.82;0.82;;;;;;;;;;5112049;28;20027;-55
2022/05/18 13:23:24;;;;;;;1.45;0.38;;;;;;;;;;5111274;28;20559;-56
2022/05/18 13:25:55;;;;;;;6.03;0.50;;;;;;;;;;5112003;28;20379;-56
2022/05/18 13:28:23;;;;;;;0.57;0.50;;;;;;;;;;5111539;28;20467;-54
2022/05/18 13:30:58;;;;;;;1.63;0.80;;;;;;;;;;5111679;28;20070;-51
2022/05/18 13:33:26;;;;;;;0.88;0.70;;;;;;;;;;5111002;28;20049;-52
2022/05/18 13:35:51;;;;;;;2.15;0.40;;;;;;;;;;5111462;28;20039;-53
2022/05/18 13:38:25;;;;;;;0.73;0.40;;;;;;;;;;5111754;28;20516;-54
2022/05/18 13:41:01;;;;;;;2.35;0.55;;;;;;;;;;5111929;28;20106;-51
2022/05/18 13:43:31;;;;;;;1.00;0.52;;;;;;;;;;5110434;28;20053;-49
2022/05/18 13:46:01;;;;;;;;;;;;;;;;;;5112199;28;20019;-57
2022/05/18 13:48:28;;;;;;;0.73;0.73;;;;;;;;;;5111061;28;19916;-55
2022/05/18 13:50:58;;;;;;;1.17;0.77;;;;;;;;;;5110868;28;20089;-53
2022/05/18 13:53:53;;;;;;;0.90;0.57;;;;;;;;;;5110892;28;20028;-55
2022/05/18 13:56:22;;;;;;;0.52;0.43;;;;;;;;;;5110759;28;20380;-51
2022/05/18 13:58:53;;;;;;;0.40;0.40;;;;;;;;;;5110816;28;20493;-52
2022/05/18 14:01:28;;;;;;;5.60;0.85;;;;;;;;;;5110972;28;20467;-55
2022/05/18 14:03:56;;;;;;;1.65;0.85;;;;;;;;;;5111112;28;20031;-52
2022/05/18 14:06:23;;;;;;;7.30;0.43;;;;;;;;;;5111110;28;20070;-56
2022/05/18 14:08:58;;;;;;;0.60;0.50;;;;;;;;;;5092345;28;20038;-56
2022/05/18 14:11:26;;;;;;;1.20;0.50;;;;;;;;;;5111346;28;20032;-59
2022/05/18 14:13:52;;;;;;;0.80;0.73;;;;;;;;;;5111084;28;20020;-53
2022/05/18 14:16:47;;;;;;;3.13;0.75;;;;;;;;;;5111042;28;20471;-54
2022/05/18 14:19:18;;;;;;;0.82;0.70;;;;;;;;;;5110571;28;20031;-57
2022/05/18 14:21:46;;;;;;;0.30;0.30;;;;;;;;;;5111133;28;20016;-56
2022/05/18 14:24:22;;;;;;;0.57;0.57;;;;;;;;;;5110981;28;20028;-57
2022/05/18 14:26:58;;;;;;;1.60;0.60;;;;;;;;;;5110891;28;20577;-55
2022/05/18 14:29:34;;;;;;;0.52;0.45;;;;;;;;;;5110844;28;20451;-57
2022/05/18 14:32:08;;;;;;;1.45;0.70;;;;;;;;;;5111013;28;20469;-55
2022/05/18 14:34:49;;;;;;;1.90;0.63;;;;;;;;;;5112373;28;20106;-57
2022/05/18 14:37:25;;;;;;;0.80;0.80;;;;;;;;;;5114940;28;20036;-57
2022/05/18 14:39:53;;;;;;;0.45;0.45;;;;;;;;;;5114664;28;20028;-57
2022/05/18 14:42:19;;;;;;;0.47;0.45;;;;;;;;;;5114856;28;20467;-56
2022/05/18 14:44:45;;;;;;;1.85;0.47;;;;;;;;;;5115205;28;20063;-54
2022/05/18 14:47:45;;;;;;;0.68;0.50;;;;;;;;;;5114687;28;20024;-57
2022/05/18 14:50:35;;;;;;;2.53;0.40;;;;;;;;;;5114646;28;20024;-58
2022/05/18 14:53:04;;;;;;;0.40;0.40;;;;;;;;;;5114381;28;20032;-59
2022/05/18 14:55:41;;;;;;;1.40;0.57;;;;;;;;;;5114553;28;20020;-58
2022/05/18 14:58:10;;;;;;;0.98;0.82;;;;;;;;;;5114209;28;20546;-53
2022/05/18 15:00:40;;;;;;;1.65;0.60;;;;;;;;;;5114245;28;20475;-56
2022/05/18 15:03:13;;;;;;;5.78;0.60;;;;;;;;;;5114334;28;20027;-57
2022/05/18 15:05:41;;;;;;;6.25;1.90;;;;;;;;;;5114467;28;20023;-56
2022/05/18 15:08:17;;;;;;;1.17;0.73;;;;;;;;;;5114233;28;20032;-56
2022/05/18 15:10:53;;;;;;;1.55;0.60;;;;;;;;;;5114187;28;20031;-53
2022/05/18 15:13:34;;;;;;;2.08;0.63;;;;;;;;;;5114141;28;20483;-54
2022/05/18 15:15:59;;;;;;;0.65;0.65;;;;;;;;;;5114259;28;20066;-54
2022/05/18 15:18:29;;;;;;;0.68;0.50;;;;;;;;;;5113181;28;20412;-57
2022/05/18 15:21:31;;;;;;;1.03;0.60;;;;;;;;;;5114289;28;20141;-57